PWSweather.com
Personal Weather Stations
Station Observations
KMIEASTT1
Tawas Bay, East Tawas, MI 48730

Tawas BayEast Tawas, MI 48730

Lat: 44.28, Lon: -83.48

Elevation: 600

Station Type: Davis VantagePro

http://www.tawasbayweather.com

High Low Average
Temperature 35.4°F1.9°C 32.0°F0.0°C 33.7°F0.9°C
Dew Point 33.1°F0.6°C 29.9°F-1.2°C 31.6°F-0.2°C
Winds 9.0 mph 14.5 kmh Calm Calm 3.0 mph WSW4.8 kmh WSW
Wind Gusts 10.0 mph16.1 kmh 1.0 mph1.6 kmh 5.0 mph8.0 kmh
Humidity 98% 84% 92%
Pressure 29.88 in1011.9 mb 29.50 in999.0 mb -
Precipitation 0.01 in0.3 mm - -
Hour Temp Dew Point Humidity Winds Wind Gusts Pressure Precip Precip Rate Daily Precip Total
12:03 AM 33.7°F0.9°C 32.9°F0.5°C 97% 8.0 mph E12.9 kmh E 10.0 mph16.1 kmh 29.52 in999.7 mb 0.03 in0.8 mm 0.60 in/hr15.2 mm/hr 0.03 in0.8 mm
12:15 AM 34.0°F1.1°C 33.2°F0.7°C 97% 6.0 mph E9.7 kmh E 10.0 mph16.1 kmh 29.50 in999.0 mb 0.03 in0.8 mm 0.00 in/hr0.0 mm/hr 0.03 in0.8 mm
12:30 AM 34.1°F1.2°C 33.3°F0.7°C 97% 3.0 mph E4.8 kmh E 7.0 mph11.3 kmh 29.49 in998.6 mb 0.03 in0.8 mm 0.00 in/hr0.0 mm/hr 0.03 in0.8 mm
12:46 AM 33.8°F1.0°C 33.0°F0.6°C 97% 9.0 mph ESE14.5 kmh ESE 10.0 mph16.1 kmh 29.50 in999.0 mb 0.01 in0.3 mm 0.00 in/hr0.0 mm/hr 0.03 in0.8 mm
01:02 AM 33.6°F0.9°C 32.8°F0.4°C 97% 4.0 mph SSE6.4 kmh SSE 5.0 mph8.0 kmh 29.51 in999.3 mb 0.01 in0.3 mm 0.00 in/hr0.0 mm/hr 0.03 in0.8 mm
01:16 AM 33.3°F0.7°C 32.5°F0.3°C 97% 2.0 mph S3.2 kmh S 3.0 mph4.8 kmh 29.51 in999.3 mb 0.01 in0.3 mm 0.00 in/hr0.0 mm/hr 0.03 in0.8 mm
01:31 AM 33.4°F0.8°C 32.6°F0.3°C 97% Calm Calm 2.0 mph3.2 kmh 29.51 in999.3 mb 0.02 in0.5 mm 0.04 in/hr1.0 mm/hr 0.04 in1.0 mm
01:46 AM 33.4°F0.8°C 32.6°F0.3°C 97% 2.0 mph S3.2 kmh S 3.0 mph4.8 kmh 29.51 in999.3 mb 0.03 in0.8 mm 0.04 in/hr1.0 mm/hr 0.05 in1.3 mm
02:00 AM 33.2°F0.7°C 32.4°F0.2°C 97% 2.0 mph S3.2 kmh S 2.0 mph3.2 kmh 29.51 in999.3 mb 0.03 in0.8 mm 0.00 in/hr0.0 mm/hr 0.05 in1.3 mm
02:16 AM 33.2°F0.7°C 32.4°F0.2°C 97% Calm Calm 2.0 mph3.2 kmh 29.50 in999.0 mb 0.02 in0.5 mm 0.00 in/hr0.0 mm/hr 0.05 in1.3 mm
02:31 AM 33.3°F0.7°C 32.5°F0.3°C 97% 1.0 mph S1.6 kmh S 3.0 mph4.8 kmh 29.50 in999.0 mb 0.01 in0.3 mm 0.00 in/hr0.0 mm/hr 0.05 in1.3 mm
02:46 AM 33.4°F0.8°C 32.6°F0.3°C 97% 4.0 mph SW6.4 kmh SW 6.0 mph9.7 kmh 29.51 in999.3 mb 0.01 in0.3 mm 0.00 in/hr0.0 mm/hr 0.05 in1.3 mm
03:02 AM 33.6°F0.9°C 33.1°F0.6°C 98% 9.0 mph WSW14.5 kmh WSW 10.0 mph16.1 kmh 29.52 in999.7 mb 0.00 in0.0 mm 0.00 in/hr0.0 mm/hr 0.05 in1.3 mm
03:16 AM 33.6°F0.9°C 32.8°F0.4°C 97% 6.0 mph WSW9.7 kmh WSW 9.0 mph14.5 kmh 29.52 in999.7 mb 0.00 in0.0 mm 0.00 in/hr0.0 mm/hr 0.05 in1.3 mm
03:31 AM 33.8°F1.0°C 33.0°F0.6°C 97% 5.0 mph WSW8.0 kmh WSW 8.0 mph12.9 kmh 29.53 in1000.0 mb 0.00 in0.0 mm 0.00 in/hr0.0 mm/hr 0.05 in1.3 mm
03:46 AM 33.9°F1.1°C 32.9°F0.5°C 96% 6.0 mph WSW9.7 kmh WSW 9.0 mph14.5 kmh 29.53 in1000.0 mb 0.00 in0.0 mm 0.00 in/hr0.0 mm/hr 0.05 in1.3 mm
04:02 AM 33.9°F1.1°C 32.6°F0.3°C 95% 4.0 mph WSW6.4 kmh WSW 7.0 mph11.3 kmh 29.53 in1000.0 mb 0.00 in0.0 mm 0.00 in/hr0.0 mm/hr 0.05 in1.3 mm
04:16 AM 33.8°F1.0°C 32.5°F0.3°C 95% 3.0 mph W4.8 kmh W 6.0 mph9.7 kmh 29.54 in1000.3 mb 0.00 in0.0 mm 0.00 in/hr0.0 mm/hr 0.05 in1.3 mm
04:31 AM 33.8°F1.0°C 32.5°F0.3°C 95% 5.0 mph WSW8.0 kmh WSW 6.0 mph9.7 kmh 29.54 in1000.3 mb 0.00 in0.0 mm 0.00 in/hr0.0 mm/hr 0.05 in1.3 mm
04:46 AM 33.9°F1.1°C 32.6°F0.3°C 95% 4.0 mph WNW6.4 kmh WNW 8.0 mph12.9 kmh 29.54 in1000.3 mb 0.00 in0.0 mm 0.00 in/hr0.0 mm/hr 0.05 in1.3 mm
05:03 AM 33.9°F1.1°C 32.6°F0.3°C 95% 3.0 mph WSW4.8 kmh WSW 5.0 mph8.0 kmh 29.54 in1000.3 mb 0.00 in0.0 mm 0.00 in/hr0.0 mm/hr 0.05 in1.3 mm
05:15 AM 33.8°F1.0°C 32.5°F0.3°C 95% 3.0 mph WSW4.8 kmh WSW 6.0 mph9.7 kmh 29.55 in1000.7 mb 0.00 in0.0 mm 0.00 in/hr0.0 mm/hr 0.05 in1.3 mm
05:31 AM 33.9°F1.1°C 32.6°F0.3°C 95% 5.0 mph WSW8.0 kmh WSW 7.0 mph11.3 kmh 29.55 in1000.7 mb 0.00 in0.0 mm 0.00 in/hr0.0 mm/hr 0.05 in1.3 mm
05:46 AM 34.0°F1.1°C 32.7°F0.4°C 95% 4.0 mph WSW6.4 kmh WSW 7.0 mph11.3 kmh 29.56 in1001.0 mb 0.00 in0.0 mm 0.00 in/hr0.0 mm/hr 0.05 in1.3 mm
06:03 AM 33.9°F1.1°C 32.6°F0.3°C 95% 4.0 mph WSW6.4 kmh WSW 5.0 mph8.0 kmh 29.56 in1001.0 mb 0.00 in0.0 mm 0.00 in/hr0.0 mm/hr 0.05 in1.3 mm
06:16 AM 33.8°F1.0°C 32.5°F0.3°C 95% 3.0 mph WSW4.8 kmh WSW 5.0 mph8.0 kmh 29.56 in1001.0 mb 0.00 in0.0 mm 0.00 in/hr0.0 mm/hr 0.05 in1.3 mm
06:31 AM 33.7°F0.9°C 32.4°F0.2°C 95% 1.0 mph WSW1.6 kmh WSW 4.0 mph6.4 kmh 29.57 in1001.4 mb 0.00 in0.0 mm 0.00 in/hr0.0 mm/hr 0.05 in1.3 mm
06:46 AM 33.5°F0.8°C 32.2°F0.1°C 95% 5.0 mph WSW8.0 kmh WSW 6.0 mph9.7 kmh 29.58 in1001.7 mb 0.00 in0.0 mm 0.00 in/hr0.0 mm/hr 0.05 in1.3 mm
07:02 AM 33.1°F0.6°C 31.8°F-0.1°C 95% 2.0 mph WSW3.2 kmh WSW 4.0 mph6.4 kmh 29.59 in1002.0 mb 0.00 in0.0 mm 0.00 in/hr0.0 mm/hr 0.05 in1.3 mm
07:15 AM 33.2°F0.7°C 32.2°F0.1°C 96% 2.0 mph WNW3.2 kmh WNW 3.0 mph4.8 kmh 29.59 in1002.0 mb 0.00 in0.0 mm 0.00 in/hr0.0 mm/hr 0.05 in1.3 mm
07:31 AM 33.4°F0.8°C 32.4°F0.2°C 96% 2.0 mph W3.2 kmh W 4.0 mph6.4 kmh 29.60 in1002.4 mb 0.00 in0.0 mm 0.00 in/hr0.0 mm/hr 0.05 in1.3 mm
07:46 AM 33.7°F0.9°C 32.4°F0.2°C 95% 3.0 mph WNW4.8 kmh WNW 6.0 mph9.7 kmh 29.60 in1002.4 mb 0.00 in0.0 mm 0.00 in/hr0.0 mm/hr 0.05 in1.3 mm
08:00 AM 33.7°F0.9°C 32.4°F0.2°C 95% 2.0 mph WNW3.2 kmh WNW 7.0 mph11.3 kmh 29.61 in1002.7 mb 0.00 in0.0 mm 0.00 in/hr0.0 mm/hr 0.05 in1.3 mm
08:16 AM 33.6°F0.9°C 32.1°F0.1°C 94% 1.0 mph NW1.6 kmh NW 4.0 mph6.4 kmh 29.61 in1002.7 mb 0.00 in0.0 mm 0.00 in/hr0.0 mm/hr 0.05 in1.3 mm
08:30 AM 33.5°F0.8°C 32.0°F0.0°C 94% 4.0 mph NW6.4 kmh NW 4.0 mph6.4 kmh 29.61 in1002.7 mb 0.00 in0.0 mm 0.00 in/hr0.0 mm/hr 0.05 in1.3 mm
08:46 AM 33.4°F0.8°C 31.9°F-0.1°C 94% 2.0 mph WNW3.2 kmh WNW 6.0 mph9.7 kmh 29.63 in1003.4 mb 0.00 in0.0 mm 0.00 in/hr0.0 mm/hr 0.05 in1.3 mm
09:03 AM 33.5°F0.8°C 32.0°F0.0°C 94% 2.0 mph WNW3.2 kmh WNW 5.0 mph8.0 kmh 29.64 in1003.7 mb 0.00 in0.0 mm 0.00 in/hr0.0 mm/hr 0.05 in1.3 mm
09:16 AM 33.5°F0.8°C 32.0°F0.0°C 94% 6.0 mph WNW9.7 kmh WNW 6.0 mph9.7 kmh 29.65 in1004.1 mb 0.00 in0.0 mm 0.00 in/hr0.0 mm/hr 0.05 in1.3 mm
09:31 AM 33.6°F0.9°C 32.1°F0.1°C 94% 5.0 mph NNW8.0 kmh NNW 5.0 mph8.0 kmh 29.65 in1004.1 mb 0.00 in0.0 mm 0.00 in/hr0.0 mm/hr 0.05 in1.3 mm
09:46 AM 33.7°F0.9°C 32.2°F0.1°C 94% 2.0 mph NW3.2 kmh NW 6.0 mph9.7 kmh 29.66 in1004.4 mb 0.00 in0.0 mm 0.00 in/hr0.0 mm/hr 0.05 in1.3 mm
10:03 AM 33.8°F1.0°C 32.0°F0.0°C 93% 2.0 mph NNW3.2 kmh NNW 6.0 mph9.7 kmh 29.67 in1004.7 mb 0.00 in0.0 mm 0.00 in/hr0.0 mm/hr 0.05 in1.3 mm
10:16 AM 33.8°F1.0°C 32.0°F0.0°C 93% 3.0 mph NW4.8 kmh NW 6.0 mph9.7 kmh 29.68 in1005.1 mb 0.00 in0.0 mm 0.00 in/hr0.0 mm/hr 0.05 in1.3 mm
10:31 AM 33.5°F0.8°C 31.4°F-0.3°C 92% 4.0 mph NNW6.4 kmh NNW 5.0 mph8.0 kmh 29.69 in1005.4 mb 0.00 in0.0 mm 0.00 in/hr0.0 mm/hr 0.05 in1.3 mm
10:46 AM 33.0°F0.6°C 30.9°F-0.6°C 92% 2.0 mph NW3.2 kmh NW 6.0 mph9.7 kmh 29.70 in1005.8 mb 0.00 in0.0 mm 0.00 in/hr0.0 mm/hr 0.05 in1.3 mm
11:02 AM 32.8°F0.4°C 30.7°F-0.7°C 92% 2.0 mph NW3.2 kmh NW 5.0 mph8.0 kmh 29.71 in1006.1 mb 0.00 in0.0 mm 0.00 in/hr0.0 mm/hr 0.05 in1.3 mm
11:16 AM 32.9°F0.5°C 30.8°F-0.7°C 92% 4.0 mph N6.4 kmh N 6.0 mph9.7 kmh 29.72 in1006.4 mb 0.00 in0.0 mm 0.00 in/hr0.0 mm/hr 0.05 in1.3 mm
11:30 AM 32.8°F0.4°C 30.7°F-0.7°C 92% 2.0 mph NW3.2 kmh NW 6.0 mph9.7 kmh 29.72 in1006.4 mb 0.00 in0.0 mm 0.00 in/hr0.0 mm/hr 0.05 in1.3 mm
11:46 AM 32.9°F0.5°C 30.8°F-0.7°C 92% 2.0 mph N3.2 kmh N 4.0 mph6.4 kmh 29.73 in1006.8 mb 0.00 in0.0 mm 0.00 in/hr0.0 mm/hr 0.05 in1.3 mm
12:02 PM 33.0°F0.6°C 30.9°F-0.6°C 92% 3.0 mph NNW4.8 kmh NNW 5.0 mph8.0 kmh 29.74 in1007.1 mb 0.00 in0.0 mm 0.00 in/hr0.0 mm/hr 0.05 in1.3 mm
12:16 PM 32.8°F0.4°C 30.7°F-0.7°C 92% 2.0 mph NW3.2 kmh NW 4.0 mph6.4 kmh 29.75 in1007.5 mb 0.00 in0.0 mm 0.00 in/hr0.0 mm/hr 0.05 in1.3 mm
12:31 PM 32.9°F0.5°C 30.6°F-0.8°C 91% 3.0 mph N4.8 kmh N 5.0 mph8.0 kmh 29.75 in1007.5 mb 0.00 in0.0 mm 0.00 in/hr0.0 mm/hr 0.05 in1.3 mm
12:45 PM 32.7°F0.4°C 30.4°F-0.9°C 91% 1.0 mph NNW1.6 kmh NNW 5.0 mph8.0 kmh 29.76 in1007.8 mb 0.00 in0.0 mm 0.00 in/hr0.0 mm/hr 0.05 in1.3 mm
01:02 PM 33.0°F0.6°C 30.7°F-0.7°C 91% 4.0 mph NNW6.4 kmh NNW 6.0 mph9.7 kmh 29.76 in1007.8 mb 0.00 in0.0 mm 0.00 in/hr0.0 mm/hr 0.05 in1.3 mm
01:15 PM 33.3°F0.7°C 31.0°F-0.6°C 91% 3.0 mph NNW4.8 kmh NNW 5.0 mph8.0 kmh 29.76 in1007.8 mb 0.00 in0.0 mm 0.00 in/hr0.0 mm/hr 0.05 in1.3 mm
01:30 PM 34.2°F1.2°C 31.3°F-0.4°C 89% 2.0 mph N3.2 kmh N 6.0 mph9.7 kmh 29.76 in1007.8 mb 0.00 in0.0 mm 0.00 in/hr0.0 mm/hr 0.05 in1.3 mm
01:46 PM 34.4°F1.3°C 31.2°F-0.4°C 88% 1.0 mph NW1.6 kmh NW 4.0 mph6.4 kmh 29.77 in1008.1 mb 0.00 in0.0 mm 0.00 in/hr0.0 mm/hr 0.05 in1.3 mm
02:00 PM 34.8°F1.6°C 31.3°F-0.4°C 87% 1.0 mph NNW1.6 kmh NNW 5.0 mph8.0 kmh 29.77 in1008.1 mb 0.00 in0.0 mm 0.00 in/hr0.0 mm/hr 0.05 in1.3 mm
02:16 PM 34.8°F1.6°C 31.1°F-0.5°C 86% Calm Calm 4.0 mph6.4 kmh 29.78 in1008.5 mb 0.00 in0.0 mm 0.00 in/hr0.0 mm/hr 0.05 in1.3 mm
02:30 PM 34.8°F1.6°C 30.8°F-0.7°C 85% 3.0 mph NW4.8 kmh NW 4.0 mph6.4 kmh 29.78 in1008.5 mb 0.00 in0.0 mm 0.00 in/hr0.0 mm/hr 0.05 in1.3 mm
02:45 PM 34.3°F1.3°C 30.8°F-0.7°C 87% 1.0 mph NW1.6 kmh NW 3.0 mph4.8 kmh 29.79 in1008.8 mb 0.00 in0.0 mm 0.00 in/hr0.0 mm/hr 0.05 in1.3 mm
03:02 PM 34.6°F1.4°C 30.6°F-0.8°C 85% 2.0 mph NW3.2 kmh NW 4.0 mph6.4 kmh 29.80 in1009.1 mb 0.00 in0.0 mm 0.00 in/hr0.0 mm/hr 0.05 in1.3 mm
03:15 PM 33.9°F1.1°C 29.9°F-1.2°C 85% 3.0 mph W4.8 kmh W 5.0 mph8.0 kmh 29.80 in1009.1 mb 0.00 in0.0 mm 0.00 in/hr0.0 mm/hr 0.05 in1.3 mm
03:32 PM 33.8°F1.0°C 30.4°F-0.9°C 87% 4.0 mph NW6.4 kmh NW 7.0 mph11.3 kmh 29.81 in1009.5 mb 0.00 in0.0 mm 0.00 in/hr0.0 mm/hr 0.05 in1.3 mm
03:46 PM 33.7°F0.9°C 30.3°F-0.9°C 87% 3.0 mph W4.8 kmh W 6.0 mph9.7 kmh 29.82 in1009.8 mb 0.00 in0.0 mm 0.00 in/hr0.0 mm/hr 0.05 in1.3 mm
04:02 PM 33.8°F1.0°C 30.4°F-0.9°C 87% 3.0 mph WNW4.8 kmh WNW 4.0 mph6.4 kmh 29.83 in1010.2 mb 0.00 in0.0 mm 0.00 in/hr0.0 mm/hr 0.05 in1.3 mm
04:16 PM 34.2°F1.2°C 30.7°F-0.7°C 87% Calm Calm 3.0 mph4.8 kmh 29.83 in1010.2 mb 0.00 in0.0 mm 0.00 in/hr0.0 mm/hr 0.05 in1.3 mm
04:32 PM 34.7°F1.5°C 31.0°F-0.6°C 86% Calm Calm 3.0 mph4.8 kmh 29.83 in1010.2 mb 0.00 in0.0 mm 0.00 in/hr0.0 mm/hr 0.05 in1.3 mm
04:46 PM 35.3°F1.8°C 31.0°F-0.6°C 84% 2.0 mph N3.2 kmh N 3.0 mph4.8 kmh 29.82 in1009.8 mb 0.00 in0.0 mm 0.00 in/hr0.0 mm/hr 0.05 in1.3 mm
05:02 PM 35.4°F1.9°C 31.1°F-0.5°C 84% 1.0 mph N1.6 kmh N 4.0 mph6.4 kmh 29.82 in1009.8 mb 0.00 in0.0 mm 0.00 in/hr0.0 mm/hr 0.05 in1.3 mm
05:15 PM 35.1°F1.7°C 31.1°F-0.5°C 85% Calm Calm 3.0 mph4.8 kmh 29.83 in1010.2 mb 0.00 in0.0 mm 0.00 in/hr0.0 mm/hr 0.05 in1.3 mm
05:30 PM 35.4°F1.9°C 31.1°F-0.5°C 84% Calm Calm 2.0 mph3.2 kmh 29.83 in1010.2 mb 0.00 in0.0 mm 0.00 in/hr0.0 mm/hr 0.05 in1.3 mm
05:46 PM 35.1°F1.7°C 31.1°F-0.5°C 85% 1.0 mph ENE1.6 kmh ENE 2.0 mph3.2 kmh 29.83 in1010.2 mb 0.00 in0.0 mm 0.00 in/hr0.0 mm/hr 0.05 in1.3 mm
06:02 PM 34.6°F1.4°C 31.1°F-0.5°C 87% Calm Calm 2.0 mph3.2 kmh 29.83 in1010.2 mb 0.00 in0.0 mm 0.00 in/hr0.0 mm/hr 0.05 in1.3 mm
06:16 PM 34.3°F1.3°C 31.1°F-0.5°C 88% Calm Calm 4.0 mph6.4 kmh 29.83 in1010.2 mb 0.00 in0.0 mm 0.00 in/hr0.0 mm/hr 0.05 in1.3 mm
06:31 PM 33.8°F1.0°C 30.9°F-0.6°C 89% Calm Calm 1.0 mph1.6 kmh 29.84 in1010.5 mb 0.00 in0.0 mm 0.00 in/hr0.0 mm/hr 0.05 in1.3 mm
06:45 PM 33.5°F0.8°C 31.2°F-0.4°C 91% 5.0 mph SE8.0 kmh SE 7.0 mph11.3 kmh 29.85 in1010.8 mb 0.00 in0.0 mm 0.00 in/hr0.0 mm/hr 0.05 in1.3 mm
07:03 PM 32.2°F0.1°C 30.7°F-0.7°C 94% 4.0 mph ESE6.4 kmh ESE 7.0 mph11.3 kmh 29.87 in1011.5 mb 0.00 in0.0 mm 0.00 in/hr0.0 mm/hr 0.05 in1.3 mm
07:15 PM 32.0°F0.0°C 30.7°F-0.7°C 95% 6.0 mph E9.7 kmh E 7.0 mph11.3 kmh 29.87 in1011.5 mb 0.00 in0.0 mm 0.00 in/hr0.0 mm/hr 0.05 in1.3 mm
07:32 PM 32.0°F0.0°C 30.7°F-0.7°C 95% 2.0 mph E3.2 kmh E 5.0 mph8.0 kmh 29.88 in1011.9 mb 0.00 in0.0 mm 0.00 in/hr0.0 mm/hr 0.05 in1.3 mm
07:46 PM 32.0°F0.0°C 30.7°F-0.7°C 95% 5.0 mph ESE8.0 kmh ESE 5.0 mph8.0 kmh 29.88 in1011.9 mb 0.00 in0.0 mm 0.00 in/hr0.0 mm/hr 0.05 in1.3 mm
08:03 PM 32.0°F0.0°C 30.7°F-0.7°C 95% 4.0 mph ESE6.4 kmh ESE 5.0 mph8.0 kmh 29.88 in1011.9 mb 0.00 in0.0 mm 0.00 in/hr0.0 mm/hr 0.05 in1.3 mm
08:16 PM 31.9°F-0.1°C 30.6°F-0.8°C 95% 4.0 mph ESE6.4 kmh ESE 5.0 mph8.0 kmh 29.89 in1012.2 mb 0.00 in0.0 mm 0.00 in/hr0.0 mm/hr 0.05 in1.3 mm
08:31 PM 32.0°F0.0°C 30.7°F-0.7°C 95% 7.0 mph SE11.3 kmh SE 8.0 mph12.9 kmh 29.90 in1012.5 mb 0.00 in0.0 mm 0.00 in/hr0.0 mm/hr 0.05 in1.3 mm
08:46 PM 32.0°F0.0°C 30.7°F-0.7°C 95% 5.0 mph SE8.0 kmh SE 8.0 mph12.9 kmh 29.90 in1012.5 mb 0.00 in0.0 mm 0.00 in/hr0.0 mm/hr 0.05 in1.3 mm
09:02 PM 31.9°F-0.1°C 30.6°F-0.8°C 95% 4.0 mph SE6.4 kmh SE 8.0 mph12.9 kmh 29.90 in1012.5 mb 0.00 in0.0 mm 0.00 in/hr0.0 mm/hr 0.05 in1.3 mm
09:16 PM 31.9°F-0.1°C 30.6°F-0.8°C 95% 7.0 mph ESE11.3 kmh ESE 7.0 mph11.3 kmh 29.90 in1012.5 mb 0.00 in0.0 mm 0.00 in/hr0.0 mm/hr 0.05 in1.3 mm
09:31 PM 31.9°F-0.1°C 30.9°F-0.6°C 96% 6.0 mph E9.7 kmh E 7.0 mph11.3 kmh 29.90 in1012.5 mb 0.00 in0.0 mm 0.00 in/hr0.0 mm/hr 0.05 in1.3 mm
09:46 PM 31.7°F-0.2°C 30.7°F-0.7°C 96% 6.0 mph E9.7 kmh E 6.0 mph9.7 kmh 29.90 in1012.5 mb 0.00 in0.0 mm 0.00 in/hr0.0 mm/hr 0.05 in1.3 mm
10:02 PM 31.8°F-0.1°C 30.8°F-0.7°C 96% 7.0 mph E11.3 kmh E 7.0 mph11.3 kmh 29.89 in1012.2 mb 0.00 in0.0 mm 0.00 in/hr0.0 mm/hr 0.05 in1.3 mm
10:16 PM 32.0°F0.0°C 31.3°F-0.4°C 97% 8.0 mph SE12.9 kmh SE 9.0 mph14.5 kmh 29.89 in1012.2 mb 0.00 in0.0 mm 0.00 in/hr0.0 mm/hr 0.05 in1.3 mm
10:31 PM 32.0°F0.0°C 31.0°F-0.6°C 96% 10.0 mph ESE16.1 kmh ESE 11.0 mph17.7 kmh 29.88 in1011.9 mb 0.00 in0.0 mm 0.00 in/hr0.0 mm/hr 0.05 in1.3 mm
10:46 PM 32.0°F0.0°C 31.0°F-0.6°C 96% 7.0 mph ESE11.3 kmh ESE 11.0 mph17.7 kmh 29.88 in1011.9 mb 0.00 in0.0 mm 0.00 in/hr0.0 mm/hr 0.05 in1.3 mm
11:02 PM 32.0°F0.0°C 31.0°F-0.6°C 96% 8.0 mph ESE12.9 kmh ESE 9.0 mph14.5 kmh 29.89 in1012.2 mb 0.00 in0.0 mm 0.00 in/hr0.0 mm/hr 0.05 in1.3 mm
11:16 PM 32.1°F0.1°C 31.1°F-0.5°C 96% 8.0 mph ESE12.9 kmh ESE 10.0 mph16.1 kmh 29.89 in1012.2 mb 0.00 in0.0 mm 0.00 in/hr0.0 mm/hr 0.05 in1.3 mm
11:31 PM 32.3°F0.2°C 31.3°F-0.4°C 96% 7.0 mph ESE11.3 kmh ESE 10.0 mph16.1 kmh 29.88 in1011.9 mb 0.00 in0.0 mm 0.00 in/hr0.0 mm/hr 0.05 in1.3 mm
11:45 PM 32.3°F0.2°C 31.0°F-0.6°C 95% 7.0 mph ESE11.3 kmh ESE 9.0 mph14.5 kmh 29.89 in1012.2 mb 0.00 in0.0 mm 0.00 in/hr0.0 mm/hr 0.05 in1.3 mm